sensor_id;sensor_type;location;lat;lon;timestamp;P1;durP1;ratioP1;P2;durP2;ratioP2
28245;SDS011;15510;52.512;13.300;2024-01-11T00:01:14;16.47;;;9.03;;
28245;SDS011;15510;52.512;13.300;2024-01-11T00:03:40;13.10;;;7.80;;
28245;SDS011;15510;52.512;13.300;2024-01-11T00:06:06;15.77;;;8.77;;
28245;SDS011;15510;52.512;13.300;2024-01-11T00:08:31;15.23;;;8.13;;
28245;SDS011;15510;52.512;13.300;2024-01-11T00:11:00;16.30;;;8.83;;
28245;SDS011;15510;52.512;13.300;2024-01-11T00:13:29;19.97;;;10.00;;
28245;SDS011;15510;52.512;13.300;2024-01-11T00:15:57;13.93;;;7.73;;
28245;SDS011;15510;52.512;13.300;2024-01-11T00:18:23;16.33;;;8.47;;
28245;SDS011;15510;52.512;13.300;2024-01-11T00:20:49;18.93;;;9.17;;
28245;SDS011;15510;52.512;13.300;2024-01-11T00:23:16;12.27;;;7.43;;
28245;SDS011;15510;52.512;13.300;2024-01-11T00:25:44;13.37;;;8.10;;
28245;SDS011;15510;52.512;13.300;2024-01-11T00:28:13;14.07;;;7.80;;
28245;SDS011;15510;52.512;13.300;2024-01-11T00:30:45;10.07;;;6.23;;
28245;SDS011;15510;52.512;13.300;2024-01-11T00:33:11;12.30;;;6.43;;
28245;SDS011;15510;52.512;13.300;2024-01-11T00:35:37;11.77;;;7.07;;
28245;SDS011;15510;52.512;13.300;2024-01-11T00:38:05;11.67;;;5.83;;
28245;SDS011;15510;52.512;13.300;2024-01-11T00:40:30;9.47;;;5.23;;
28245;SDS011;15510;52.512;13.300;2024-01-11T00:42:56;12.80;;;6.57;;
28245;SDS011;15510;52.512;13.300;2024-01-11T00:45:22;16.20;;;7.20;;
28245;SDS011;15510;52.512;13.300;2024-01-11T00:47:48;10.90;;;6.17;;
28245;SDS011;15510;52.512;13.300;2024-01-11T00:50:13;11.30;;;6.10;;
28245;SDS011;15510;52.512;13.300;2024-01-11T00:52:39;14.60;;;7.30;;
28245;SDS011;15510;52.512;13.300;2024-01-11T00:55:05;15.23;;;7.73;;
28245;SDS011;15510;52.512;13.300;2024-01-11T00:57:33;18.50;;;8.00;;
28245;SDS011;15510;52.512;13.300;2024-01-11T00:59:59;14.57;;;7.47;;
28245;SDS011;15510;52.512;13.300;2024-01-11T01:02:25;14.83;;;7.03;;
28245;SDS011;15510;52.512;13.300;2024-01-11T01:04:50;9.73;;;6.43;;
28245;SDS011;15510;52.512;13.300;2024-01-11T01:07:16;8.77;;;5.23;;
28245;SDS011;15510;52.512;13.300;2024-01-11T01:09:45;11.47;;;5.87;;
28245;SDS011;15510;52.512;13.300;2024-01-11T01:12:10;14.47;;;5.73;;
28245;SDS011;15510;52.512;13.300;2024-01-11T01:14:36;10.80;;;5.97;;
28245;SDS011;15510;52.512;13.300;2024-01-11T01:17:02;14.10;;;6.63;;
28245;SDS011;15510;52.512;13.300;2024-01-11T01:19:28;12.77;;;6.77;;
28245;SDS011;15510;52.512;13.300;2024-01-11T01:21:54;10.93;;;6.27;;
28245;SDS011;15510;52.512;13.300;2024-01-11T01:24:20;15.13;;;7.27;;
28245;SDS011;15510;52.512;13.300;2024-01-11T01:26:45;14.97;;;7.70;;
28245;SDS011;15510;52.512;13.300;2024-01-11T01:29:13;13.10;;;7.40;;
28245;SDS011;15510;52.512;13.300;2024-01-11T01:31:39;15.20;;;7.07;;
28245;SDS011;15510;52.512;13.300;2024-01-11T01:34:06;12.53;;;7.73;;
28245;SDS011;15510;52.512;13.300;2024-01-11T01:36:32;14.87;;;7.30;;
28245;SDS011;15510;52.512;13.300;2024-01-11T01:38:58;12.87;;;7.67;;
28245;SDS011;15510;52.512;13.300;2024-01-11T01:41:23;13.93;;;7.13;;
28245;SDS011;15510;52.512;13.300;2024-01-11T01:43:49;12.63;;;6.67;;
28245;SDS011;15510;52.512;13.300;2024-01-11T01:46:15;10.57;;;6.20;;
28245;SDS011;15510;52.512;13.300;2024-01-11T01:48:47;15.00;;;6.57;;
28245;SDS011;15510;52.512;13.300;2024-01-11T01:51:12;16.10;;;7.30;;
28245;SDS011;15510;52.512;13.300;2024-01-11T01:53:39;10.83;;;5.90;;
28245;SDS011;15510;52.512;13.300;2024-01-11T01:56:06;13.93;;;7.00;;
28245;SDS011;15510;52.512;13.300;2024-01-11T01:58:33;12.47;;;6.77;;
28245;SDS011;15510;52.512;13.300;2024-01-11T02:01:00;11.80;;;6.97;;
28245;SDS011;15510;52.512;13.300;2024-01-11T02:03:27;12.63;;;6.10;;
28245;SDS011;15510;52.512;13.300;2024-01-11T02:05:53;11.27;;;6.53;;
28245;SDS011;15510;52.512;13.300;2024-01-11T02:08:21;18.53;;;7.17;;
28245;SDS011;15510;52.512;13.300;2024-01-11T02:10:51;14.20;;;7.47;;
28245;SDS011;15510;52.512;13.300;2024-01-11T02:13:17;11.50;;;6.67;;
28245;SDS011;15510;52.512;13.300;2024-01-11T02:15:44;11.67;;;6.00;;
28245;SDS011;15510;52.512;13.300;2024-01-11T02:18:11;10.57;;;5.90;;
28245;SDS011;15510;52.512;13.300;2024-01-11T02:20:36;7.80;;;4.90;;
28245;SDS011;15510;52.512;13.300;2024-01-11T02:23:05;8.03;;;4.87;;
28245;SDS011;15510;52.512;13.300;2024-01-11T02:25:35;11.83;;;5.47;;
28245;SDS011;15510;52.512;13.300;2024-01-11T02:28:00;10.13;;;4.67;;
28245;SDS011;15510;52.512;13.300;2024-01-11T02:30:26;9.43;;;5.23;;
28245;SDS011;15510;52.512;13.300;2024-01-11T02:32:52;8.93;;;4.83;;
28245;SDS011;15510;52.512;13.300;2024-01-11T02:35:19;8.60;;;4.83;;
28245;SDS011;15510;52.512;13.300;2024-01-11T02:37:45;7.57;;;4.57;;
28245;SDS011;15510;52.512;13.300;2024-01-11T02:40:12;6.73;;;4.30;;
28245;SDS011;15510;52.512;13.300;2024-01-11T02:42:39;6.90;;;4.00;;
28245;SDS011;15510;52.512;13.300;2024-01-11T02:45:05;8.27;;;4.93;;
28245;SDS011;15510;52.512;13.300;2024-01-11T02:47:31;9.10;;;4.70;;
28245;SDS011;15510;52.512;13.300;2024-01-11T02:49:59;8.03;;;4.33;;
28245;SDS011;15510;52.512;13.300;2024-01-11T02:52:25;8.03;;;5.40;;
28245;SDS011;15510;52.512;13.300;2024-01-11T02:54:51;9.00;;;5.20;;
28245;SDS011;15510;52.512;13.300;2024-01-11T02:57:16;8.97;;;4.57;;
28245;SDS011;15510;52.512;13.300;2024-01-11T02:59:43;9.23;;;4.90;;
28245;SDS011;15510;52.512;13.300;2024-01-11T03:02:08;14.37;;;6.47;;
28245;SDS011;15510;52.512;13.300;2024-01-11T03:04:34;9.00;;;5.10;;
28245;SDS011;15510;52.512;13.300;2024-01-11T03:07:03;8.10;;;5.23;;
28245;SDS011;15510;52.512;13.300;2024-01-11T03:09:29;14.33;;;6.07;;
28245;SDS011;15510;52.512;13.300;2024-01-11T03:11:55;11.87;;;6.50;;
28245;SDS011;15510;52.512;13.300;2024-01-11T03:14:21;11.53;;;6.30;;
28245;SDS011;15510;52.512;13.300;2024-01-11T03:16:49;12.17;;;6.13;;
28245;SDS011;15510;52.512;13.300;2024-01-11T03:19:15;11.70;;;6.93;;
28245;SDS011;15510;52.512;13.300;2024-01-11T03:21:45;16.03;;;6.67;;
28245;SDS011;15510;52.512;13.300;2024-01-11T03:24:11;15.17;;;7.47;;
28245;SDS011;15510;52.512;13.300;2024-01-11T03:26:38;13.30;;;6.63;;
28245;SDS011;15510;52.512;13.300;2024-01-11T03:29:04;14.53;;;7.43;;
28245;SDS011;15510;52.512;13.300;2024-01-11T03:31:30;13.13;;;7.07;;
28245;SDS011;15510;52.512;13.300;2024-01-11T03:33:58;15.53;;;6.37;;
28245;SDS011;15510;52.512;13.300;2024-01-11T03:36:24;13.10;;;6.57;;
28245;SDS011;15510;52.512;13.300;2024-01-11T03:38:50;12.07;;;6.07;;
28245;SDS011;15510;52.512;13.300;2024-01-11T03:41:16;15.13;;;6.90;;
28245;SDS011;15510;52.512;13.300;2024-01-11T03:43:42;16.57;;;7.10;;
28245;SDS011;15510;52.512;13.300;2024-01-11T03:46:07;11.63;;;6.70;;
28245;SDS011;15510;52.512;13.300;2024-01-11T03:48:33;13.63;;;6.80;;
28245;SDS011;15510;52.512;13.300;2024-01-11T03:51:05;10.37;;;5.87;;
28245;SDS011;15510;52.512;13.300;2024-01-11T03:53:34;12.10;;;5.73;;
28245;SDS011;15510;52.512;13.300;2024-01-11T03:56:02;10.37;;;5.33;;
28245;SDS011;15510;52.512;13.300;2024-01-11T03:58:28;13.30;;;6.20;;
28245;SDS011;15510;52.512;13.300;2024-01-11T04:00:53;12.33;;;5.93;;
28245;SDS011;15510;52.512;13.300;2024-01-11T04:03:19;11.00;;;5.47;;
28245;SDS011;15510;52.512;13.300;2024-01-11T04:05:45;10.70;;;5.53;;
28245;SDS011;15510;52.512;13.300;2024-01-11T04:08:11;12.73;;;5.90;;
28245;SDS011;15510;52.512;13.300;2024-01-11T04:10:36;9.47;;;5.00;;
28245;SDS011;15510;52.512;13.300;2024-01-11T04:13:02;12.23;;;6.37;;
28245;SDS011;15510;52.512;13.300;2024-01-11T04:15:28;12.37;;;5.40;;
28245;SDS011;15510;52.512;13.300;2024-01-11T04:17:54;10.90;;;5.70;;
28245;SDS011;15510;52.512;13.300;2024-01-11T04:20:20;11.47;;;5.23;;
28245;SDS011;15510;52.512;13.300;2024-01-11T04:22:45;15.93;;;5.23;;
28245;SDS011;15510;52.512;13.300;2024-01-11T04:25:11;10.37;;;5.27;;
28245;SDS011;15510;52.512;13.300;2024-01-11T04:27:37;11.07;;;4.93;;
28245;SDS011;15510;52.512;13.300;2024-01-11T04:30:03;11.60;;;5.77;;
28245;SDS011;15510;52.512;13.300;2024-01-11T04:32:29;11.70;;;5.73;;
28245;SDS011;15510;52.512;13.300;2024-01-11T04:34:55;13.57;;;5.90;;
28245;SDS011;15510;52.512;13.300;2024-01-11T04:37:20;12.47;;;4.87;;
28245;SDS011;15510;52.512;13.300;2024-01-11T04:39:46;12.50;;;6.43;;
28245;SDS011;15510;52.512;13.300;2024-01-11T04:42:12;13.20;;;5.63;;
28245;SDS011;15510;52.512;13.300;2024-01-11T04:44:39;14.43;;;5.80;;
28245;SDS011;15510;52.512;13.300;2024-01-11T04:47:05;14.17;;;5.90;;
28245;SDS011;15510;52.512;13.300;2024-01-11T04:49:31;11.50;;;5.60;;
28245;SDS011;15510;52.512;13.300;2024-01-11T04:51:56;14.07;;;6.03;;
28245;SDS011;15510;52.512;13.300;2024-01-11T04:54:22;12.57;;;5.53;;
28245;SDS011;15510;52.512;13.300;2024-01-11T04:56:48;9.77;;;5.40;;
28245;SDS011;15510;52.512;13.300;2024-01-11T04:59:14;14.93;;;5.43;;
28245;SDS011;15510;52.512;13.300;2024-01-11T05:01:40;16.37;;;6.60;;
28245;SDS011;15510;52.512;13.300;2024-01-11T05:04:07;13.27;;;5.13;;
28245;SDS011;15510;52.512;13.300;2024-01-11T05:06:34;13.27;;;7.30;;
28245;SDS011;15510;52.512;13.300;2024-01-11T05:09:02;13.97;;;5.83;;
28245;SDS011;15510;52.512;13.300;2024-01-11T05:11:29;15.07;;;6.50;;
28245;SDS011;15510;52.512;13.300;2024-01-11T05:13:55;15.13;;;6.87;;
28245;SDS011;15510;52.512;13.300;2024-01-11T05:18:51;13.57;;;6.53;;
28245;SDS011;15510;52.512;13.300;2024-01-11T05:21:17;13.57;;;5.37;;
28245;SDS011;15510;52.512;13.300;2024-01-11T05:23:43;21.30;;;8.80;;
28245;SDS011;15510;52.512;13.300;2024-01-11T05:26:09;15.63;;;7.00;;
28245;SDS011;15510;52.512;13.300;2024-01-11T05:28:36;14.93;;;6.60;;
28245;SDS011;15510;52.512;13.300;2024-01-11T05:31:04;13.80;;;5.97;;
28245;SDS011;15510;52.512;13.300;2024-01-11T05:33:31;15.37;;;6.37;;
28245;SDS011;15510;52.512;13.300;2024-01-11T05:35:57;18.77;;;7.63;;
28245;SDS011;15510;52.512;13.300;2024-01-11T05:38:23;40.07;;;17.93;;
28245;SDS011;15510;52.512;13.300;2024-01-11T05:40:51;30.87;;;16.63;;
28245;SDS011;15510;52.512;13.300;2024-01-11T05:43:17;22.63;;;13.03;;
28245;SDS011;15510;52.512;13.300;2024-01-11T05:45:43;23.33;;;12.57;;
28245;SDS011;15510;52.512;13.300;2024-01-11T05:48:10;14.30;;;7.97;;
28245;SDS011;15510;52.512;13.300;2024-01-11T05:50:36;22.17;;;9.73;;
28245;SDS011;15510;52.512;13.300;2024-01-11T05:53:02;14.33;;;7.57;;
28245;SDS011;15510;52.512;13.300;2024-01-11T05:55:31;18.13;;;8.37;;
28245;SDS011;15510;52.512;13.300;2024-01-11T05:57:56;15.60;;;7.20;;
28245;SDS011;15510;52.512;13.300;2024-01-11T06:00:22;20.27;;;7.30;;
28245;SDS011;15510;52.512;13.300;2024-01-11T06:02:51;16.70;;;6.80;;
28245;SDS011;15510;52.512;13.300;2024-01-11T06:05:17;16.53;;;6.77;;
28245;SDS011;15510;52.512;13.300;2024-01-11T06:07:43;16.83;;;8.13;;
28245;SDS011;15510;52.512;13.300;2024-01-11T06:10:08;13.90;;;6.53;;
28245;SDS011;15510;52.512;13.300;2024-01-11T06:12:35;21.30;;;7.97;;
28245;SDS011;15510;52.512;13.300;2024-01-11T06:15:01;17.30;;;7.90;;
28245;SDS011;15510;52.512;13.300;2024-01-11T06:17:27;18.70;;;8.20;;
28245;SDS011;15510;52.512;13.300;2024-01-11T06:19:53;17.47;;;7.17;;
28245;SDS011;15510;52.512;13.300;2024-01-11T06:22:20;19.97;;;8.53;;
28245;SDS011;15510;52.512;13.300;2024-01-11T06:24:46;19.57;;;8.50;;
28245;SDS011;15510;52.512;13.300;2024-01-11T06:27:13;17.47;;;7.70;;
28245;SDS011;15510;52.512;13.300;2024-01-11T06:29:42;19.60;;;7.87;;
28245;SDS011;15510;52.512;13.300;2024-01-11T06:32:07;20.37;;;9.43;;
28245;SDS011;15510;52.512;13.300;2024-01-11T06:34:36;21.30;;;8.37;;
28245;SDS011;15510;52.512;13.300;2024-01-11T06:37:02;23.07;;;9.93;;
28245;SDS011;15510;52.512;13.300;2024-01-11T06:39:28;23.23;;;8.03;;
28245;SDS011;15510;52.512;13.300;2024-01-11T06:41:55;26.30;;;8.30;;
28245;SDS011;15510;52.512;13.300;2024-01-11T06:44:21;27.70;;;10.70;;
28245;SDS011;15510;52.512;13.300;2024-01-11T06:46:46;26.57;;;10.63;;
28245;SDS011;15510;52.512;13.300;2024-01-11T06:49:12;27.60;;;10.50;;
28245;SDS011;15510;52.512;13.300;2024-01-11T06:51:39;30.97;;;11.13;;
28245;SDS011;15510;52.512;13.300;2024-01-11T06:54:05;29.10;;;10.33;;
28245;SDS011;15510;52.512;13.300;2024-01-11T06:56:32;24.63;;;9.73;;
28245;SDS011;15510;52.512;13.300;2024-01-11T06:59:01;23.47;;;9.67;;
28245;SDS011;15510;52.512;13.300;2024-01-11T07:01:27;24.80;;;9.50;;
28245;SDS011;15510;52.512;13.300;2024-01-11T07:03:52;20.47;;;8.27;;
28245;SDS011;15510;52.512;13.300;2024-01-11T07:06:18;24.47;;;9.50;;
28245;SDS011;15510;52.512;13.300;2024-01-11T07:08:47;21.90;;;8.53;;
28245;SDS011;15510;52.512;13.300;2024-01-11T07:11:13;19.23;;;7.90;;
28245;SDS011;15510;52.512;13.300;2024-01-11T07:13:38;21.57;;;7.93;;
28245;SDS011;15510;52.512;13.300;2024-01-11T07:16:04;25.47;;;8.93;;
28245;SDS011;15510;52.512;13.300;2024-01-11T07:18:30;23.83;;;8.47;;
28245;SDS011;15510;52.512;13.300;2024-01-11T07:20:56;21.30;;;8.50;;
28245;SDS011;15510;52.512;13.300;2024-01-11T07:23:24;23.57;;;8.00;;
28245;SDS011;15510;52.512;13.300;2024-01-11T07:25:49;21.60;;;9.33;;
28245;SDS011;15510;52.512;13.300;2024-01-11T07:28:15;21.73;;;8.80;;
28245;SDS011;15510;52.512;13.300;2024-01-11T07:30:42;18.20;;;8.77;;
28245;SDS011;15510;52.512;13.300;2024-01-11T07:33:08;24.63;;;9.17;;
28245;SDS011;15510;52.512;13.300;2024-01-11T07:35:34;22.80;;;9.17;;
28245;SDS011;15510;52.512;13.300;2024-01-11T07:38:00;18.27;;;8.10;;
28245;SDS011;15510;52.512;13.300;2024-01-11T07:40:26;25.87;;;9.47;;
28245;SDS011;15510;52.512;13.300;2024-01-11T07:42:52;23.70;;;8.70;;
28245;SDS011;15510;52.512;13.300;2024-01-11T07:45:18;25.57;;;10.17;;
28245;SDS011;15510;52.512;13.300;2024-01-11T07:47:46;20.40;;;8.50;;
28245;SDS011;15510;52.512;13.300;2024-01-11T07:50:14;22.47;;;9.80;;
28245;SDS011;15510;52.512;13.300;2024-01-11T07:52:40;24.80;;;9.60;;
28245;SDS011;15510;52.512;13.300;2024-01-11T07:55:06;27.50;;;10.00;;
28245;SDS011;15510;52.512;13.300;2024-01-11T07:57:36;24.70;;;9.67;;
28245;SDS011;15510;52.512;13.300;2024-01-11T08:00:03;18.50;;;8.57;;
28245;SDS011;15510;52.512;13.300;2024-01-11T08:02:41;19.97;;;8.43;;
28245;SDS011;15510;52.512;13.300;2024-01-11T08:05:07;24.47;;;8.23;;
28245;SDS011;15510;52.512;13.300;2024-01-11T08:07:34;23.47;;;9.73;;
28245;SDS011;15510;52.512;13.300;2024-01-11T08:10:00;22.60;;;9.70;;
28245;SDS011;15510;52.512;13.300;2024-01-11T08:12:26;26.83;;;10.17;;
28245;SDS011;15510;52.512;13.300;2024-01-11T08:14:52;22.33;;;9.90;;
28245;SDS011;15510;52.512;13.300;2024-01-11T08:17:21;24.30;;;9.87;;
28245;SDS011;15510;52.512;13.300;2024-01-11T08:19:47;21.30;;;9.37;;
28245;SDS011;15510;52.512;13.300;2024-01-11T08:22:15;26.33;;;10.33;;
28245;SDS011;15510;52.512;13.300;2024-01-11T08:24:41;19.43;;;9.43;;
28245;SDS011;15510;52.512;13.300;2024-01-11T08:27:06;20.80;;;8.80;;
28245;SDS011;15510;52.512;13.300;2024-01-11T08:29:35;24.60;;;9.87;;
28245;SDS011;15510;52.512;13.300;2024-01-11T08:32:01;22.77;;;9.37;;
28245;SDS011;15510;52.512;13.300;2024-01-11T08:34:35;23.70;;;9.67;;
28245;SDS011;15510;52.512;13.300;2024-01-11T08:37:06;25.90;;;9.53;;
28245;SDS011;15510;52.512;13.300;2024-01-11T08:39:32;21.00;;;9.33;;
28245;SDS011;15510;52.512;13.300;2024-01-11T08:41:59;23.43;;;10.40;;
28245;SDS011;15510;52.512;13.300;2024-01-11T08:44:24;25.67;;;10.23;;
28245;SDS011;15510;52.512;13.300;2024-01-11T08:46:53;25.30;;;9.23;;
28245;SDS011;15510;52.512;13.300;2024-01-11T08:49:22;24.97;;;9.87;;
28245;SDS011;15510;52.512;13.300;2024-01-11T08:51:48;24.47;;;10.83;;
28245;SDS011;15510;52.512;13.300;2024-01-11T08:54:14;22.20;;;9.57;;
28245;SDS011;15510;52.512;13.300;2024-01-11T08:56:41;24.20;;;10.20;;
28245;SDS011;15510;52.512;13.300;2024-01-11T08:59:10;26.73;;;11.43;;
28245;SDS011;15510;52.512;13.300;2024-01-11T09:01:36;40.33;;;10.57;;
28245;SDS011;15510;52.512;13.300;2024-01-11T09:04:05;24.17;;;9.67;;
28245;SDS011;15510;52.512;13.300;2024-01-11T09:06:31;28.77;;;9.73;;
28245;SDS011;15510;52.512;13.300;2024-01-11T09:08:58;21.83;;;10.40;;
28245;SDS011;15510;52.512;13.300;2024-01-11T09:11:24;20.93;;;9.03;;
28245;SDS011;15510;52.512;13.300;2024-01-11T09:13:50;22.27;;;9.27;;
28245;SDS011;15510;52.512;13.300;2024-01-11T09:16:26;20.17;;;9.47;;
28245;SDS011;15510;52.512;13.300;2024-01-11T09:18:52;23.37;;;9.13;;
28245;SDS011;15510;52.512;13.300;2024-01-11T09:21:17;25.40;;;10.23;;
28245;SDS011;15510;52.512;13.300;2024-01-11T09:23:43;25.67;;;10.17;;
28245;SDS011;15510;52.512;13.300;2024-01-11T09:26:12;26.23;;;10.83;;
28245;SDS011;15510;52.512;13.300;2024-01-11T09:28:38;18.50;;;8.80;;
28245;SDS011;15510;52.512;13.300;2024-01-11T09:31:04;25.73;;;11.23;;
28245;SDS011;15510;52.512;13.300;2024-01-11T09:33:30;24.57;;;10.37;;
28245;SDS011;15510;52.512;13.300;2024-01-11T09:35:56;32.13;;;15.57;;
28245;SDS011;15510;52.512;13.300;2024-01-11T09:38:22;28.30;;;10.57;;
28245;SDS011;15510;52.512;13.300;2024-01-11T09:40:54;23.00;;;10.47;;
28245;SDS011;15510;52.512;13.300;2024-01-11T09:43:34;22.80;;;9.63;;
28245;SDS011;15510;52.512;13.300;2024-01-11T09:46:06;20.87;;;9.70;;
28245;SDS011;15510;52.512;13.300;2024-01-11T09:48:35;22.80;;;10.60;;
28245;SDS011;15510;52.512;13.300;2024-01-11T09:51:03;26.13;;;11.63;;
28245;SDS011;15510;52.512;13.300;2024-01-11T09:53:32;26.83;;;12.47;;
28245;SDS011;15510;52.512;13.300;2024-01-11T09:56:00;28.43;;;11.07;;
28245;SDS011;15510;52.512;13.300;2024-01-11T09:58:26;30.77;;;11.60;;
28245;SDS011;15510;52.512;13.300;2024-01-11T10:00:55;25.53;;;12.63;;
28245;SDS011;15510;52.512;13.300;2024-01-11T10:03:24;24.47;;;10.03;;
28245;SDS011;15510;52.512;13.300;2024-01-11T10:05:53;35.03;;;15.68;;
28245;SDS011;15510;52.512;13.300;2024-01-11T10:08:22;28.27;;;11.80;;
28245;SDS011;15510;52.512;13.300;2024-01-11T10:10:49;32.20;;;12.60;;
28245;SDS011;15510;52.512;13.300;2024-01-11T10:13:15;24.47;;;11.50;;
28245;SDS011;15510;52.512;13.300;2024-01-11T10:15:44;30.20;;;12.93;;
28245;SDS011;15510;52.512;13.300;2024-01-11T10:18:09;28.63;;;10.70;;
28245;SDS011;15510;52.512;13.300;2024-01-11T10:20:36;29.23;;;11.67;;
28245;SDS011;15510;52.512;13.300;2024-01-11T10:23:02;28.47;;;11.73;;
28245;SDS011;15510;52.512;13.300;2024-01-11T10:25:28;31.02;;;14.88;;
28245;SDS011;15510;52.512;13.300;2024-01-11T10:27:57;35.67;;;14.50;;
28245;SDS011;15510;52.512;13.300;2024-01-11T10:30:23;31.77;;;12.77;;
28245;SDS011;15510;52.512;13.300;2024-01-11T10:32:50;28.43;;;11.50;;
28245;SDS011;15510;52.512;13.300;2024-01-11T10:35:19;36.77;;;12.93;;
28245;SDS011;15510;52.512;13.300;2024-01-11T10:37:45;22.77;;;10.70;;
28245;SDS011;15510;52.512;13.300;2024-01-11T10:40:16;24.70;;;10.67;;
28245;SDS011;15510;52.512;13.300;2024-01-11T10:42:43;26.40;;;11.60;;
28245;SDS011;15510;52.512;13.300;2024-01-11T10:45:19;28.77;;;12.37;;
28245;SDS011;15510;52.512;13.300;2024-01-11T10:47:49;26.27;;;11.27;;
28245;SDS011;15510;52.512;13.300;2024-01-11T10:50:23;26.20;;;11.60;;
28245;SDS011;15510;52.512;13.300;2024-01-11T10:52:54;24.00;;;10.93;;
28245;SDS011;15510;52.512;13.300;2024-01-11T10:55:37;29.40;;;11.47;;
28245;SDS011;15510;52.512;13.300;2024-01-11T10:58:05;29.07;;;11.50;;
28245;SDS011;15510;52.512;13.300;2024-01-11T11:00:31;30.77;;;11.90;;
28245;SDS011;15510;52.512;13.300;2024-01-11T11:03:00;24.27;;;12.33;;
28245;SDS011;15510;52.512;13.300;2024-01-11T11:05:28;32.80;;;11.83;;
28245;SDS011;15510;52.512;13.300;2024-01-11T11:07:57;26.60;;;12.27;;
28245;SDS011;15510;52.512;13.300;2024-01-11T11:10:27;26.73;;;12.43;;
28245;SDS011;15510;52.512;13.300;2024-01-11T11:12:54;24.87;;;12.57;;
28245;SDS011;15510;52.512;13.300;2024-01-11T11:15:23;28.57;;;12.00;;
28245;SDS011;15510;52.512;13.300;2024-01-11T11:17:49;29.33;;;11.93;;
28245;SDS011;15510;52.512;13.300;2024-01-11T11:20:15;28.23;;;12.20;;
28245;SDS011;15510;52.512;13.300;2024-01-11T11:22:41;24.70;;;11.60;;
28245;SDS011;15510;52.512;13.300;2024-01-11T11:25:11;29.03;;;12.37;;
28245;SDS011;15510;52.512;13.300;2024-01-11T11:27:52;28.63;;;12.13;;
28245;SDS011;15510;52.512;13.300;2024-01-11T11:30:19;34.60;;;16.87;;
28245;SDS011;15510;52.512;13.300;2024-01-11T11:32:45;29.67;;;12.70;;
28245;SDS011;15510;52.512;13.300;2024-01-11T11:35:11;27.90;;;11.67;;
28245;SDS011;15510;52.512;13.300;2024-01-11T11:37:38;30.47;;;12.43;;
28245;SDS011;15510;52.512;13.300;2024-01-11T11:40:08;29.43;;;12.93;;
28245;SDS011;15510;52.512;13.300;2024-01-11T11:42:36;31.47;;;12.93;;
28245;SDS011;15510;52.512;13.300;2024-01-11T11:45:02;25.87;;;12.17;;
28245;SDS011;15510;52.512;13.300;2024-01-11T11:47:35;28.50;;;12.60;;
28245;SDS011;15510;52.512;13.300;2024-01-11T11:50:08;29.37;;;12.47;;
28245;SDS011;15510;52.512;13.300;2024-01-11T11:52:36;21.13;;;10.70;;
28245;SDS011;15510;52.512;13.300;2024-01-11T11:55:03;28.43;;;12.80;;
28245;SDS011;15510;52.512;13.300;2024-01-11T11:57:30;21.67;;;10.27;;
28245;SDS011;15510;52.512;13.300;2024-01-11T12:00:02;21.67;;;10.87;;
28245;SDS011;15510;52.512;13.300;2024-01-11T12:02:40;22.97;;;11.17;;
28245;SDS011;15510;52.512;13.300;2024-01-11T12:05:07;23.83;;;11.40;;
28245;SDS011;15510;52.512;13.300;2024-01-11T12:07:39;21.77;;;11.20;;
28245;SDS011;15510;52.512;13.300;2024-01-11T12:10:07;22.57;;;11.30;;
28245;SDS011;15510;52.512;13.300;2024-01-11T12:12:37;22.07;;;10.60;;
28245;SDS011;15510;52.512;13.300;2024-01-11T12:15:04;23.03;;;10.80;;
28245;SDS011;15510;52.512;13.300;2024-01-11T12:17:31;28.87;;;12.40;;
28245;SDS011;15510;52.512;13.300;2024-01-11T12:19:59;24.20;;;12.40;;
28245;SDS011;15510;52.512;13.300;2024-01-11T12:22:31;24.83;;;11.17;;
28245;SDS011;15510;52.512;13.300;2024-01-11T12:24:57;23.53;;;11.57;;
28245;SDS011;15510;52.512;13.300;2024-01-11T12:27:22;34.40;;;13.90;;
28245;SDS011;15510;52.512;13.300;2024-01-11T12:29:48;27.63;;;12.30;;
28245;SDS011;15510;52.512;13.300;2024-01-11T12:32:14;22.67;;;11.60;;
28245;SDS011;15510;52.512;13.300;2024-01-11T12:34:42;26.23;;;12.07;;
28245;SDS011;15510;52.512;13.300;2024-01-11T12:37:12;29.33;;;13.10;;
28245;SDS011;15510;52.512;13.300;2024-01-11T12:39:38;25.33;;;12.60;;
28245;SDS011;15510;52.512;13.300;2024-01-11T12:42:07;26.33;;;12.23;;
28245;SDS011;15510;52.512;13.300;2024-01-11T12:44:34;23.73;;;11.43;;
28245;SDS011;15510;52.512;13.300;2024-01-11T12:47:02;23.00;;;11.87;;
28245;SDS011;15510;52.512;13.300;2024-01-11T12:49:30;28.67;;;12.57;;
28245;SDS011;15510;52.512;13.300;2024-01-11T12:51:56;28.60;;;13.50;;
28245;SDS011;15510;52.512;13.300;2024-01-11T12:54:25;24.50;;;12.10;;
28245;SDS011;15510;52.512;13.300;2024-01-11T12:56:50;29.13;;;13.40;;
28245;SDS011;15510;52.512;13.300;2024-01-11T12:59:16;27.80;;;12.40;;
28245;SDS011;15510;52.512;13.300;2024-01-11T13:01:45;25.43;;;12.10;;
28245;SDS011;15510;52.512;13.300;2024-01-11T13:04:11;28.30;;;12.07;;
28245;SDS011;15510;52.512;13.300;2024-01-11T13:06:37;28.10;;;12.13;;
28245;SDS011;15510;52.512;13.300;2024-01-11T13:09:03;34.67;;;15.90;;
28245;SDS011;15510;52.512;13.300;2024-01-11T13:11:33;25.00;;;13.10;;
28245;SDS011;15510;52.512;13.300;2024-01-11T13:13:59;32.93;;;18.10;;
28245;SDS011;15510;52.512;13.300;2024-01-11T13:16:32;26.63;;;12.80;;
28245;SDS011;15510;52.512;13.300;2024-01-11T13:18:58;24.30;;;11.23;;
28245;SDS011;15510;52.512;13.300;2024-01-11T13:21:24;22.10;;;10.47;;
28245;SDS011;15510;52.512;13.300;2024-01-11T13:23:50;23.10;;;10.70;;
28245;SDS011;15510;52.512;13.300;2024-01-11T13:26:15;22.67;;;11.13;;
28245;SDS011;15510;52.512;13.300;2024-01-11T13:28:43;19.03;;;10.60;;
28245;SDS011;15510;52.512;13.300;2024-01-11T13:31:09;20.63;;;10.63;;
28245;SDS011;15510;52.512;13.300;2024-01-11T13:33:36;22.37;;;11.20;;
28245;SDS011;15510;52.512;13.300;2024-01-11T13:36:01;20.37;;;10.37;;
28245;SDS011;15510;52.512;13.300;2024-01-11T13:38:27;19.63;;;10.47;;
28245;SDS011;15510;52.512;13.300;2024-01-11T13:40:53;22.67;;;10.67;;
28245;SDS011;15510;52.512;13.300;2024-01-11T13:43:19;17.63;;;9.50;;
28245;SDS011;15510;52.512;13.300;2024-01-11T13:45:45;16.37;;;9.13;;
28245;SDS011;15510;52.512;13.300;2024-01-11T13:48:11;18.57;;;9.13;;
28245;SDS011;15510;52.512;13.300;2024-01-11T13:50:36;18.60;;;9.43;;
28245;SDS011;15510;52.512;13.300;2024-01-11T13:53:02;26.57;;;13.23;;
28245;SDS011;15510;52.512;13.300;2024-01-11T13:55:28;20.90;;;10.77;;
28245;SDS011;15510;52.512;13.300;2024-01-11T13:58:02;17.17;;;9.53;;
28245;SDS011;15510;52.512;13.300;2024-01-11T14:00:28;18.93;;;10.47;;
28245;SDS011;15510;52.512;13.300;2024-01-11T14:02:54;17.67;;;9.43;;
28245;SDS011;15510;52.512;13.300;2024-01-11T14:05:20;17.80;;;9.27;;
28245;SDS011;15510;52.512;13.300;2024-01-11T14:07:45;15.50;;;8.67;;
28245;SDS011;15510;52.512;13.300;2024-01-11T14:10:12;19.77;;;9.10;;
28245;SDS011;15510;52.512;13.300;2024-01-11T14:12:39;18.67;;;8.73;;
28245;SDS011;15510;52.512;13.300;2024-01-11T14:15:06;18.40;;;9.57;;
28245;SDS011;15510;52.512;13.300;2024-01-11T14:17:36;17.23;;;9.07;;
28245;SDS011;15510;52.512;13.300;2024-01-11T14:20:03;15.17;;;8.03;;